Share

Akaska, SD

8:33 AM CDT on April 24, 2014 (GMT -0500)
KSDHOVEN2 Elev 1877 ft | 45.24 °N, 99.78 °W | Change Station
Active Advisory: Fire Weather Warning Active Notice: Public Information Statement

Current weather conditions updated 3 minutes ago

Clear
Clear
47.3 °F
Feels Like 47 °F
N
3.1
Wind Variable Wind from NNW
Gusts 8.1 mph
Sunrise 6:38 AM
Sunset 8:36 PM
Moon Waning Crescent

Today is forecast to be nearly the same temperature as yesterday.

Pressure 29.77 in
Visibility 10.0 miles
Clouds Clear
Windchill 47 °F
Dew Point 25 °F
Humidity 42%
Rainfall 0.00 in
Snow Depth Not available.
UV 1 out of 16
Pollen 11.30 out of 12
Air Quality Not available.
Flu Activity Sporadic
METAR KMBG 241252Z AUTO 31009KT 10SM CLR 05/M01 A2975 RMK AO2 SLP081 T00501011

More Conditions Fewer Conditions

Pressure 29.77 in
Visibility 10.0 miles
Clouds Clear
Windchill 47 °F
Dew Point 25 °F
Humidity 42%
Rainfall 0.00 in
Snow Depth Not available.
UV 1 out of 16
Pollen 11.30 out of 12
Air Quality Not available.
Flu Activity Sporadic
METAR KMBG 241252Z AUTO 31009KT 10SM CLR 05/M01 A2975 RMK AO2 SLP081 T00501011

More Conditions Fewer Conditions

10-Day Weather Forecast

Almanac

Astronomy

Apr. 24, 2014 Rise Set
Actual Time 6:38 AM CDT 8:36 PM CDT
Civil Twilight 6:07 AM CDT 9:08 PM CDT
Nautical Twilight 5:28 AM CDT 9:47 PM CDT
Astronomical Twilight 4:45 AM CDT 10:30 PM CDT
Moon 4:05 AM CDT 3:41 PM CDT
Length of Visible Light 15h 01m
Length of Day
13h 57m
Tomorrow will be 2m 54s longer.
Waning Crescent, 25% of the Moon is Illuminated
Today
Waning Crescent
Apr 29
New
May 6
First Quarter
May 14
Full
May 21
Last Quarter

Today's Extremes

State Highs State Lows

Community

  • Stacked
    Stacked
  • clouds approaching Red Sox Nation
    clouds approaching Red Sox Nation
  • Balance
    Balance
  • Citysky
    Citysky
  • Nestled In
    Nestled In

WunderPhotos

Upload Photos

1,704,605 photos uploaded!

Nearby

Snow Depth

Station Depth Elevation
North Rapid Creek 10 in 6130 ft
Blind Park 10 in 6890 ft

Coastal Water Temperatures

Place Temperature
No Stations Reporting

Earthquake Activity

City Distance Mag. Time & Date
No recent earthquake activity has been reported nearby.
Minimum magnitude displayed is 2.5.

Nearby Weather Stations

Station Location Temp. Windchill Dew Point Humidity Wind Precip. Elev Updated Type
Hoven, SD 47.3 °F 47 °F 25 °F 42% NNW  at  3.1 mph 0.00 in / hr 1877 ft 8:30 AM CDT Normal
NonFedAWOS GETTYSBURG , Gettysburg, SD 41 °F 34 °F 32 °F 70% WNW  at  12 mph 0.00 in / hr 2061 ft 7:55 AM CDT MADIS

Show More Stations Show Fewer Stations

What do you think?

We're not finished. Please let us know what you like, what you don't like, and what you are still missing.